createdAt,value
2017-10-15T00:00:46.812Z,9.50
2017-10-15T00:03:14.349Z,6.97
2017-10-15T00:05:41.908Z,7.63
2017-10-15T00:08:09.433Z,9.03
2017-10-15T00:10:37.005Z,7.57
2017-10-15T00:13:04.943Z,8.77
2017-10-15T00:15:32.531Z,6.87
2017-10-15T00:18:00.069Z,7.70
2017-10-15T00:20:27.626Z,7.43
2017-10-15T00:22:55.180Z,9.77
2017-10-15T00:25:23.102Z,9.23
2017-10-15T00:27:50.664Z,9.90
2017-10-15T00:30:18.213Z,9.23
2017-10-15T00:32:45.779Z,8.40
2017-10-15T00:35:13.718Z,8.43
2017-10-15T00:37:41.238Z,8.70
2017-10-15T00:40:08.796Z,7.80
2017-10-15T00:42:36.725Z,10.80
2017-10-15T00:45:04.261Z,7.83
2017-10-15T00:47:32.205Z,6.83
2017-10-15T00:49:59.743Z,7.57
2017-10-15T00:52:27.281Z,8.03
2017-10-15T00:54:55.245Z,6.97
2017-10-15T00:57:22.782Z,13.30
2017-10-15T00:59:50.319Z,9.27
2017-10-15T01:02:17.861Z,7.67
2017-10-15T01:04:45.398Z,9.03
2017-10-15T01:07:12.943Z,13.63
2017-10-15T01:09:40.473Z,7.03
2017-10-15T01:12:08.419Z,8.30
2017-10-15T01:14:35.942Z,8.53
2017-10-15T01:17:03.519Z,10.17
2017-10-15T01:19:31.037Z,8.70
2017-10-15T01:21:58.572Z,12.03
2017-10-15T01:24:26.113Z,7.43
2017-10-15T01:26:54.037Z,8.83
2017-10-15T01:29:21.587Z,10.63
2017-10-15T01:31:49.508Z,9.80
2017-10-15T01:34:17.049Z,9.10
2017-10-15T01:36:44.592Z,12.00
2017-10-15T01:39:12.549Z,10.67
2017-10-15T01:41:40.097Z,8.47
2017-10-15T01:44:07.629Z,10.43
2017-10-15T01:46:35.186Z,10.10
2017-10-15T01:49:03.118Z,10.80
2017-10-15T01:51:30.664Z,10.80
2017-10-15T01:53:58.201Z,11.87
2017-10-15T01:56:25.754Z,11.23
2017-10-15T01:58:53.292Z,10.83
2017-10-15T02:01:20.860Z,10.10
2017-10-15T02:03:48.475Z,9.83
2017-10-15T02:06:16.002Z,11.80
2017-10-15T02:08:43.558Z,14.97
2017-10-15T02:11:11.090Z,9.73
2017-10-15T02:13:38.650Z,10.47
2017-10-15T02:16:06.180Z,10.50
2017-10-15T02:18:33.745Z,12.10
2017-10-15T02:21:01.275Z,9.67
2017-10-15T02:23:28.836Z,11.03
2017-10-15T02:25:56.380Z,10.40
2017-10-15T02:28:23.907Z,8.50
2017-10-15T02:30:51.449Z,9.27
2017-10-15T02:33:18.984Z,10.10
2017-10-15T02:35:46.546Z,11.17
2017-10-15T02:38:14.462Z,11.10
2017-10-15T02:40:42.016Z,11.03
2017-10-15T02:43:09.571Z,12.43
2017-10-15T02:45:37.118Z,12.90
2017-10-15T02:48:04.658Z,11.43
2017-10-15T02:50:32.192Z,11.47
2017-10-15T02:52:59.749Z,15.50
2017-10-15T02:55:27.681Z,10.47
2017-10-15T02:57:55.240Z,10.90
2017-10-15T03:00:22.785Z,11.20
2017-10-15T03:02:50.345Z,11.47
2017-10-15T03:05:17.889Z,15.40
2017-10-15T03:07:45.412Z,12.83
2017-10-15T03:10:12.957Z,13.10
2017-10-15T03:12:40.969Z,14.20
2017-10-15T03:15:08.853Z,16.10
2017-10-15T03:17:36.413Z,13.83
2017-10-15T03:20:04.000Z,14.33
2017-10-15T03:22:31.529Z,11.97
2017-10-15T03:24:59.458Z,15.43
2017-10-15T03:27:27.009Z,14.53
2017-10-15T03:29:54.548Z,14.30
2017-10-15T03:32:22.502Z,11.37
2017-10-15T03:34:50.139Z,12.93
2017-10-15T03:37:17.719Z,13.27
2017-10-15T03:39:45.291Z,13.23
2017-10-15T03:42:12.828Z,14.60
2017-10-15T03:44:40.782Z,13.63
2017-10-15T03:47:08.309Z,16.70
2017-10-15T03:49:35.875Z,14.93
2017-10-15T03:52:03.467Z,15.83
2017-10-15T03:54:31.037Z,15.00
2017-10-15T03:56:58.588Z,13.63
2017-10-15T03:59:26.142Z,15.30
2017-10-15T04:01:54.132Z,16.27
2017-10-15T04:04:21.681Z,15.93
2017-10-15T04:06:49.633Z,17.90
2017-10-15T04:09:17.186Z,15.27
2017-10-15T04:11:45.494Z,15.60
2017-10-15T04:14:13.026Z,14.10
2017-10-15T04:16:41.138Z,17.17
2017-10-15T04:19:08.702Z,22.57
2017-10-15T04:21:36.312Z,17.03
2017-10-15T04:24:03.870Z,13.70
2017-10-15T04:26:31.404Z,15.60
2017-10-15T04:28:58.953Z,13.90
2017-10-15T04:31:26.506Z,20.70
2017-10-15T04:33:54.061Z,14.90
2017-10-15T04:36:21.635Z,21.27
2017-10-15T04:38:49.190Z,20.70
2017-10-15T04:41:16.752Z,19.63
2017-10-15T04:43:44.296Z,16.70
2017-10-15T04:46:11.859Z,16.60
2017-10-15T04:48:39.801Z,19.57
2017-10-15T04:51:07.381Z,17.10
2017-10-15T04:53:34.913Z,16.10
2017-10-15T04:56:02.513Z,15.10
2017-10-15T04:58:30.102Z,17.27
2017-10-15T05:00:57.640Z,15.30
2017-10-15T05:03:25.199Z,17.33
2017-10-15T05:05:52.750Z,18.13
2017-10-15T05:08:20.301Z,17.47
2017-10-15T05:10:48.229Z,17.50
2017-10-15T05:13:15.769Z,16.40
2017-10-15T05:15:43.729Z,17.23
2017-10-15T05:18:11.687Z,22.15
2017-10-15T05:20:39.240Z,17.77
2017-10-15T05:23:06.794Z,18.80
2017-10-15T05:25:34.366Z,24.03
2017-10-15T05:28:01.921Z,21.10
2017-10-15T05:30:30.477Z,18.73
2017-10-15T05:32:58.059Z,22.87
2017-10-15T05:35:25.606Z,16.70
2017-10-15T05:37:53.184Z,22.20
2017-10-15T05:40:20.809Z,20.27
2017-10-15T05:42:48.452Z,19.70
2017-10-15T05:45:16.023Z,18.83
2017-10-15T05:47:43.568Z,17.20
2017-10-15T05:50:11.140Z,18.70
2017-10-15T05:52:38.692Z,16.70
2017-10-15T05:55:06.247Z,19.60
2017-10-15T05:57:33.810Z,22.40
2017-10-15T06:00:01.374Z,22.43
2017-10-15T06:02:29.323Z,20.90
2017-10-15T06:04:56.991Z,20.77
2017-10-15T06:07:24.537Z,21.03
2017-10-15T06:09:52.103Z,22.17
2017-10-15T06:12:19.676Z,21.08
2017-10-15T06:14:47.270Z,25.80
2017-10-15T06:17:14.839Z,24.37
2017-10-15T06:19:42.379Z,20.57
2017-10-15T06:22:09.974Z,22.37
2017-10-15T06:24:37.518Z,27.40
2017-10-15T06:27:05.056Z,21.70
2017-10-15T06:29:32.626Z,22.57
2017-10-15T06:32:00.572Z,22.93
2017-10-15T06:34:28.128Z,23.37
2017-10-15T06:36:55.736Z,25.43
2017-10-15T06:39:23.304Z,23.20
2017-10-15T06:41:50.843Z,25.50
2017-10-15T06:44:18.382Z,22.00
2017-10-15T06:46:46.332Z,24.43
2017-10-15T06:49:13.941Z,19.50
2017-10-15T06:51:41.503Z,22.20
2017-10-15T06:54:09.152Z,22.53
2017-10-15T06:56:36.723Z,20.63
2017-10-15T06:59:04.257Z,22.20
2017-10-15T07:01:31.830Z,22.20
2017-10-15T07:03:59.361Z,20.33
2017-10-15T07:06:26.920Z,17.70
2017-10-15T07:08:54.453Z,18.23
2017-10-15T07:11:21.999Z,17.00
2017-10-15T07:13:49.534Z,16.67
2017-10-15T07:16:17.101Z,19.37
2017-10-15T07:18:44.643Z,13.83
2017-10-15T07:21:12.191Z,14.70
2017-10-15T07:23:39.737Z,15.50
2017-10-15T07:26:07.681Z,13.00
2017-10-15T07:28:35.243Z,10.97
2017-10-15T07:31:02.773Z,11.87
2017-10-15T07:33:30.729Z,10.93
2017-10-15T07:35:58.263Z,11.33
2017-10-15T07:38:25.799Z,10.10
2017-10-15T07:40:53.338Z,12.43
2017-10-15T07:43:20.864Z,10.70
2017-10-15T07:45:48.408Z,9.53
2017-10-15T07:48:16.332Z,11.13
2017-10-15T07:50:43.888Z,14.03
2017-10-15T07:53:11.469Z,11.53
2017-10-15T07:55:39.030Z,9.30
2017-10-15T07:58:06.558Z,10.43
2017-10-15T08:00:34.072Z,7.47
2017-10-15T08:03:01.613Z,7.33
2017-10-15T08:05:29.549Z,10.10
2017-10-15T08:07:57.143Z,7.13
2017-10-15T08:10:24.669Z,9.63
2017-10-15T08:12:52.222Z,10.43
2017-10-15T08:15:19.747Z,7.20
2017-10-15T08:17:47.305Z,8.53
2017-10-15T08:20:14.841Z,10.03
2017-10-15T08:22:42.369Z,7.10
2017-10-15T08:25:11.945Z,7.43
2017-10-15T08:27:39.466Z,9.10
2017-10-15T08:30:07.254Z,8.90
2017-10-15T08:32:34.776Z,7.10
2017-10-15T08:35:02.349Z,9.60
2017-10-15T08:37:29.869Z,12.67
2017-10-15T08:39:57.429Z,5.93
2017-10-15T08:42:24.953Z,6.60
2017-10-15T08:44:52.495Z,9.60
2017-10-15T08:47:20.434Z,8.60
2017-10-15T08:49:47.982Z,7.07
2017-10-15T08:52:15.530Z,6.97
2017-10-15T08:54:43.063Z,7.70
2017-10-15T08:57:10.612Z,8.30
2017-10-15T08:59:38.132Z,5.13
2017-10-15T09:02:06.083Z,8.23
2017-10-15T09:04:33.642Z,9.87
2017-10-15T09:07:01.165Z,6.93
2017-10-15T09:09:29.114Z,10.27
2017-10-15T09:11:56.642Z,6.13
2017-10-15T09:14:24.181Z,6.93
2017-10-15T09:16:52.092Z,6.80
2017-10-15T09:19:19.639Z,8.33
2017-10-15T09:21:47.550Z,7.43
2017-10-15T09:24:15.103Z,7.67
2017-10-15T09:26:42.624Z,6.80
2017-10-15T09:29:10.182Z,6.47
2017-10-15T09:31:37.710Z,5.40
2017-10-15T09:34:05.230Z,6.80
2017-10-15T09:36:32.782Z,12.37
2017-10-15T09:39:00.324Z,7.10
2017-10-15T09:41:27.868Z,12.90
2017-10-15T09:43:55.386Z,7.33
2017-10-15T09:46:22.925Z,5.30
2017-10-15T09:48:50.836Z,5.10
2017-10-15T09:51:18.369Z,4.90
2017-10-15T09:53:46.289Z,6.27
2017-10-15T09:56:13.831Z,4.30
2017-10-15T09:58:41.757Z,4.80
2017-10-15T10:01:09.291Z,4.93
2017-10-15T10:03:36.805Z,5.27
2017-10-15T10:06:04.369Z,4.80
2017-10-15T10:08:31.886Z,4.77
2017-10-15T10:10:59.805Z,6.50
2017-10-15T10:13:27.341Z,9.53
2017-10-15T10:15:55.259Z,4.57
2017-10-15T10:18:22.865Z,6.37
2017-10-15T10:20:50.407Z,6.10
2017-10-15T10:23:17.996Z,5.93
2017-10-15T10:25:45.522Z,5.17
2017-10-15T10:28:13.041Z,6.57
2017-10-15T10:30:40.575Z,5.57
2017-10-15T10:33:08.091Z,5.83
2017-10-15T10:35:35.651Z,7.80
2017-10-15T10:38:03.173Z,5.23
2017-10-15T10:40:31.124Z,5.77
2017-10-15T10:42:58.672Z,6.43
2017-10-15T10:45:26.223Z,7.70
2017-10-15T10:47:53.787Z,9.63
2017-10-15T10:50:21.305Z,5.87
2017-10-15T10:52:48.927Z,6.20
2017-10-15T10:55:16.553Z,4.57
2017-10-15T10:57:44.074Z,6.37
2017-10-15T11:00:11.622Z,6.90
2017-10-15T11:02:39.550Z,6.63
2017-10-15T11:05:07.100Z,7.47
2017-10-15T11:07:34.621Z,8.40
2017-10-15T11:10:02.178Z,4.30
2017-10-15T11:12:30.577Z,5.60
2017-10-15T11:14:58.124Z,5.77
2017-10-15T11:17:25.664Z,3.47
2017-10-15T11:19:53.180Z,6.97
2017-10-15T11:22:20.730Z,6.43
2017-10-15T11:24:48.248Z,4.87
2017-10-15T11:27:15.787Z,4.20
2017-10-15T11:29:43.319Z,4.13
2017-10-15T11:32:10.868Z,7.20
2017-10-15T11:34:38.800Z,4.37
2017-10-15T11:37:06.359Z,7.60
2017-10-15T11:39:33.903Z,4.23
2017-10-15T11:42:01.827Z,6.43
2017-10-15T11:44:29.381Z,7.03
2017-10-15T11:46:56.922Z,6.33
2017-10-15T11:49:24.469Z,5.17
2017-10-15T11:51:52.134Z,5.50
2017-10-15T11:54:19.719Z,4.40
2017-10-15T11:56:47.657Z,5.17
2017-10-15T11:59:15.188Z,5.30
2017-10-15T12:01:43.130Z,9.33
2017-10-15T12:04:10.655Z,5.37
2017-10-15T12:06:38.189Z,6.47
2017-10-15T12:09:05.726Z,6.70
2017-10-15T12:11:33.294Z,4.60
2017-10-15T12:14:00.841Z,8.00
2017-10-15T12:16:28.416Z,6.43
2017-10-15T12:18:55.944Z,5.57
2017-10-15T12:21:23.469Z,7.03
2017-10-15T12:23:51.001Z,4.90
2017-10-15T12:26:18.530Z,5.77
2017-10-15T12:28:46.214Z,6.53
2017-10-15T12:31:13.766Z,5.03
2017-10-15T12:33:41.424Z,7.47
2017-10-15T12:36:08.947Z,5.57
2017-10-15T12:38:36.508Z,10.37
2017-10-15T12:41:04.028Z,6.97
2017-10-15T12:43:31.558Z,4.70
2017-10-15T12:45:59.099Z,5.00
2017-10-15T12:48:26.626Z,5.67
2017-10-15T12:50:54.557Z,5.17
2017-10-15T12:53:22.090Z,4.90
2017-10-15T12:55:50.028Z,6.20
2017-10-15T12:58:17.619Z,7.60
2017-10-15T13:00:45.250Z,5.27
2017-10-15T13:03:12.766Z,5.13
2017-10-15T13:05:40.306Z,6.53
2017-10-15T13:08:07.856Z,8.83
2017-10-15T13:10:35.388Z,5.90
2017-10-15T13:13:03.361Z,6.73
2017-10-15T13:15:30.884Z,6.93
2017-10-15T13:17:58.465Z,6.63
2017-10-15T13:20:25.994Z,7.10
2017-10-15T13:22:53.921Z,6.73
2017-10-15T13:25:21.478Z,7.20
2017-10-15T13:27:49.028Z,6.43
2017-10-15T13:30:16.583Z,6.90
2017-10-15T13:32:44.547Z,8.13
2017-10-15T13:35:12.119Z,5.60
2017-10-15T13:37:39.648Z,6.67
2017-10-15T13:40:07.186Z,6.97
2017-10-15T13:42:35.111Z,5.37
2017-10-15T13:45:02.651Z,6.13
2017-10-15T13:47:30.188Z,7.40
2017-10-15T13:49:57.717Z,5.73
2017-10-15T13:52:25.258Z,6.47
2017-10-15T13:54:53.178Z,8.63
2017-10-15T13:57:20.714Z,8.33
2017-10-15T13:59:48.260Z,5.77
2017-10-15T14:02:15.790Z,7.73
2017-10-15T14:04:43.331Z,11.00
2017-10-15T14:07:10.848Z,6.13
2017-10-15T14:09:38.401Z,5.60
2017-10-15T14:12:05.916Z,5.60
2017-10-15T14:14:33.839Z,6.13
2017-10-15T14:17:01.381Z,6.97
2017-10-15T14:19:28.904Z,8.30
2017-10-15T14:21:56.450Z,6.53
2017-10-15T14:24:23.960Z,7.37
2017-10-15T14:26:52.407Z,11.20
2017-10-15T14:29:19.990Z,6.70
2017-10-15T14:31:47.596Z,6.03
2017-10-15T14:34:15.124Z,6.93
2017-10-15T14:36:42.645Z,9.13
2017-10-15T14:39:10.206Z,9.23
2017-10-15T14:41:37.730Z,7.60
2017-10-15T14:44:05.268Z,6.60
2017-10-15T14:46:32.802Z,9.20
2017-10-15T14:49:00.388Z,9.87
2017-10-15T14:51:27.926Z,6.73
2017-10-15T14:53:55.448Z,8.00
2017-10-15T14:56:23.005Z,9.10
2017-10-15T14:58:50.531Z,7.60
2017-10-15T15:01:18.066Z,7.20
2017-10-15T15:03:45.581Z,8.77
2017-10-15T15:06:13.147Z,8.47
2017-10-15T15:08:40.676Z,8.60
2017-10-15T15:11:08.824Z,8.97
2017-10-15T15:13:36.364Z,10.30
2017-10-15T15:16:04.276Z,7.37
2017-10-15T15:18:31.872Z,10.00
2017-10-15T15:20:59.492Z,12.27
2017-10-15T15:23:27.066Z,10.37
2017-10-15T15:25:54.589Z,8.07
2017-10-15T15:28:22.146Z,8.07
2017-10-15T15:30:49.664Z,7.87
2017-10-15T15:33:17.625Z,9.40
2017-10-15T15:35:45.156Z,9.97
2017-10-15T15:38:12.696Z,11.40
2017-10-15T15:40:40.258Z,19.87
2017-10-15T15:43:08.179Z,7.20
2017-10-15T15:45:35.750Z,8.23
2017-10-15T15:48:03.278Z,9.23
2017-10-15T15:50:31.240Z,9.63
2017-10-15T15:52:58.767Z,8.37
2017-10-15T15:55:26.314Z,8.23
2017-10-15T15:57:54.265Z,10.03
2017-10-15T16:00:21.791Z,9.53
2017-10-15T16:02:49.348Z,9.40
2017-10-15T16:05:16.903Z,10.63
2017-10-15T16:07:44.474Z,10.70
2017-10-15T16:10:11.997Z,8.33
2017-10-15T16:12:39.531Z,11.53
2017-10-15T16:15:07.092Z,10.50
2017-10-15T16:17:35.009Z,10.13
2017-10-15T16:20:02.549Z,8.93
2017-10-15T16:22:30.470Z,12.53
2017-10-15T16:24:58.051Z,11.67
2017-10-15T16:27:25.588Z,11.23
2017-10-15T16:29:53.153Z,8.80
2017-10-15T16:32:20.693Z,8.90
2017-10-15T16:34:48.222Z,9.73
2017-10-15T16:37:15.786Z,12.50
2017-10-15T16:39:43.417Z,8.80
2017-10-15T16:42:11.353Z,12.13
2017-10-15T16:44:38.980Z,9.13
2017-10-15T16:47:06.953Z,11.07
2017-10-15T16:49:34.492Z,11.63
2017-10-15T16:52:02.024Z,7.73
2017-10-15T16:54:29.619Z,8.23
2017-10-15T16:56:57.185Z,8.30
2017-10-15T16:59:24.736Z,10.37
2017-10-15T17:01:52.317Z,9.90
2017-10-15T17:04:19.861Z,11.63
2017-10-15T17:06:47.397Z,10.23
2017-10-15T17:09:15.380Z,9.00
2017-10-15T17:11:42.904Z,8.63
2017-10-15T17:14:10.439Z,13.27
2017-10-15T17:16:38.011Z,9.20
2017-10-15T17:19:05.549Z,10.03
2017-10-15T17:21:33.091Z,10.67
2017-10-15T17:24:00.659Z,8.97
2017-10-15T17:26:28.232Z,10.13
2017-10-15T17:28:55.774Z,11.40
2017-10-15T17:31:23.312Z,11.53
2017-10-15T17:33:50.862Z,8.23
2017-10-15T17:36:18.398Z,8.90
2017-10-15T17:38:45.943Z,8.70
2017-10-15T17:41:13.469Z,8.70
2017-10-15T17:43:41.071Z,9.93
2017-10-15T17:46:08.592Z,10.40
2017-10-15T17:48:36.516Z,10.47
2017-10-15T17:51:04.083Z,10.70
2017-10-15T17:53:31.601Z,9.43
2017-10-15T17:55:59.549Z,10.93
2017-10-15T17:58:27.112Z,9.40
2017-10-15T18:00:54.698Z,11.90
2017-10-15T18:03:22.222Z,8.77
2017-10-15T18:05:49.804Z,10.43
2017-10-15T18:08:17.356Z,11.57
2017-10-15T18:10:45.270Z,9.70
2017-10-15T18:13:12.818Z,10.80
2017-10-15T18:15:40.344Z,8.97
2017-10-15T18:18:07.917Z,12.30
2017-10-15T18:20:35.447Z,14.57
2017-10-15T18:23:02.977Z,10.83
2017-10-15T18:25:30.512Z,9.43
2017-10-15T18:27:58.044Z,12.60
2017-10-15T18:30:25.582Z,9.20
2017-10-15T18:32:53.113Z,13.30
2017-10-15T18:35:20.673Z,8.80
2017-10-15T18:37:48.192Z,10.40
2017-10-15T18:40:15.726Z,13.30
2017-10-15T18:42:43.261Z,9.60
2017-10-15T18:45:10.793Z,10.87
2017-10-15T18:47:47.578Z,35.63
2017-10-15T18:50:15.813Z,14.40
2017-10-15T18:52:43.832Z,26.17
2017-10-15T18:55:11.365Z,11.53
2017-10-15T18:57:39.289Z,15.57
2017-10-15T19:00:06.886Z,11.80
2017-10-15T19:02:34.461Z,9.40
2017-10-15T19:05:02.009Z,16.10
2017-10-15T19:07:29.586Z,10.60
2017-10-15T19:09:57.151Z,14.50
2017-10-15T19:12:24.709Z,9.10
2017-10-15T19:14:52.241Z,10.07
2017-10-15T19:17:20.185Z,13.23
2017-10-15T19:19:47.713Z,11.60
2017-10-15T19:22:15.258Z,10.50
2017-10-15T19:24:42.850Z,13.73
2017-10-15T19:27:10.430Z,12.63
2017-10-15T19:29:37.957Z,12.53
2017-10-15T19:32:05.553Z,10.70
2017-10-15T19:34:33.502Z,13.50
2017-10-15T19:37:01.037Z,13.53
2017-10-15T19:39:28.592Z,10.63
2017-10-15T19:41:56.217Z,13.33
2017-10-15T19:44:23.745Z,11.20
2017-10-15T19:46:51.295Z,12.93
2017-10-15T19:49:19.227Z,10.53
2017-10-15T19:51:46.770Z,11.10
2017-10-15T19:54:14.310Z,11.50
2017-10-15T19:56:42.270Z,14.33
2017-10-15T19:59:09.797Z,10.97
2017-10-15T20:01:37.326Z,10.80
2017-10-15T20:04:04.882Z,10.43
2017-10-15T20:06:32.426Z,16.03
2017-10-15T20:08:59.969Z,11.57
2017-10-15T20:11:27.503Z,12.80
2017-10-15T20:13:55.053Z,11.10
2017-10-15T20:16:22.587Z,12.80
2017-10-15T20:18:50.131Z,11.83
2017-10-15T20:21:17.735Z,13.50
2017-10-15T20:23:45.277Z,11.80
2017-10-15T20:26:13.252Z,11.00
2017-10-15T20:28:40.789Z,13.10
2017-10-15T20:31:08.357Z,14.40
2017-10-15T20:33:35.885Z,15.27
2017-10-15T20:36:03.802Z,14.17
2017-10-15T20:38:31.345Z,14.57
2017-10-15T20:40:59.264Z,12.30
2017-10-15T20:43:26.841Z,13.60
2017-10-15T20:45:54.379Z,11.50
2017-10-15T20:48:21.947Z,12.63
2017-10-15T20:50:49.488Z,12.70
2017-10-15T20:53:17.425Z,12.30
2017-10-15T20:55:44.978Z,11.83
2017-10-15T20:58:12.527Z,12.67
2017-10-15T21:00:40.487Z,13.50
2017-10-15T21:03:08.432Z,15.30
2017-10-15T21:05:36.020Z,17.50
2017-10-15T21:08:03.563Z,13.70
2017-10-15T21:10:31.098Z,15.50
2017-10-15T21:12:59.045Z,13.10
2017-10-15T21:15:26.579Z,19.00
2017-10-15T21:17:54.122Z,12.00
2017-10-15T21:20:22.051Z,13.53
2017-10-15T21:22:49.614Z,14.67
2017-10-15T21:25:17.154Z,13.70
2017-10-15T21:27:45.078Z,15.37
2017-10-15T21:30:12.653Z,13.93
2017-10-15T21:32:40.193Z,12.70
2017-10-15T21:35:07.754Z,17.83
2017-10-15T21:37:35.303Z,11.63
2017-10-15T21:40:02.885Z,15.80
2017-10-15T21:42:30.824Z,12.30
2017-10-15T21:44:58.361Z,13.20
2017-10-15T21:47:25.934Z,14.17
2017-10-15T21:49:53.474Z,16.33
2017-10-15T21:52:21.424Z,15.17
2017-10-15T21:54:48.960Z,15.93
2017-10-15T21:57:16.533Z,14.97
2017-10-15T21:59:44.060Z,14.07
2017-10-15T22:02:11.654Z,15.57
2017-10-15T22:04:39.610Z,14.67
2017-10-15T22:07:07.146Z,14.73
2017-10-15T22:09:34.701Z,15.90
2017-10-15T22:12:02.278Z,16.43
2017-10-15T22:14:29.858Z,16.07
2017-10-15T22:16:57.399Z,15.90
2017-10-15T22:19:24.935Z,16.37
2017-10-15T22:24:53.524Z,17.83
2017-10-15T22:27:21.083Z,13.33
2017-10-15T22:29:48.612Z,18.80
2017-10-15T22:32:16.153Z,18.50
2017-10-15T22:34:44.082Z,15.13
2017-10-15T22:37:11.612Z,16.47
2017-10-15T22:39:39.536Z,17.73
2017-10-15T22:42:07.083Z,16.50
2017-10-15T22:44:34.625Z,18.60
2017-10-15T22:47:02.562Z,16.40
2017-10-15T22:49:30.107Z,16.63
2017-10-15T22:51:57.644Z,16.03
2017-10-15T22:54:25.593Z,14.80
2017-10-15T22:56:53.108Z,16.00
2017-10-15T22:59:20.678Z,14.53
2017-10-15T23:01:48.603Z,16.13
2017-10-15T23:04:16.150Z,15.40
2017-10-15T23:06:43.694Z,14.70
2017-10-15T23:09:11.619Z,14.97
2017-10-15T23:11:39.175Z,15.20
2017-10-15T23:14:06.725Z,17.20
2017-10-15T23:16:34.267Z,15.73
2017-10-15T23:19:01.805Z,20.13
2017-10-15T23:21:29.368Z,16.53
2017-10-15T23:23:56.892Z,19.27
2017-10-15T23:26:24.420Z,17.27
2017-10-15T23:28:51.964Z,15.10
2017-10-15T23:31:19.509Z,20.10
2017-10-15T23:33:48.059Z,16.67
2017-10-15T23:36:15.572Z,18.10
2017-10-15T23:38:43.111Z,17.40
2017-10-15T23:41:10.635Z,16.57
2017-10-15T23:43:38.548Z,17.60
2017-10-15T23:46:06.071Z,19.93
2017-10-15T23:48:33.608Z,16.73
2017-10-15T23:51:01.143Z,17.53
2017-10-15T23:53:28.691Z,16.90
2017-10-15T23:55:56.235Z,17.00
2017-10-15T23:58:23.742Z,19.33
